createdAt,value
2022-12-07T00:03:02.537Z,5.53
2022-12-07T00:05:31.273Z,5.40
2022-12-07T00:07:59.398Z,6.32
2022-12-07T00:10:28.524Z,6.00
2022-12-07T00:12:56.507Z,5.43
2022-12-07T00:15:23.963Z,6.80
2022-12-07T00:17:51.697Z,6.47
2022-12-07T00:20:19.236Z,5.82
2022-12-07T00:22:47.100Z,6.75
2022-12-07T00:25:14.598Z,5.57
2022-12-07T00:27:43.799Z,5.15
2022-12-07T00:30:11.554Z,5.18
2022-12-07T00:32:39.337Z,4.60
2022-12-07T00:35:07.239Z,5.72
2022-12-07T00:37:35.163Z,5.05
2022-12-07T00:40:02.641Z,4.18
2022-12-07T00:42:30.679Z,4.35
2022-12-07T00:44:59.440Z,4.47
2022-12-07T00:47:27.238Z,4.53
2022-12-07T00:49:54.529Z,3.88
2022-12-07T00:52:25.418Z,2.92
2022-12-07T00:54:53.034Z,3.03
2022-12-07T00:57:20.807Z,3.45
2022-12-07T00:59:48.942Z,3.08
2022-12-07T01:02:18.143Z,3.95
2022-12-07T01:04:45.640Z,3.38
2022-12-07T01:07:13.467Z,3.88
2022-12-07T01:09:40.911Z,4.30
2022-12-07T01:12:08.696Z,3.38
2022-12-07T01:14:35.916Z,3.17
2022-12-07T01:17:03.837Z,3.50
2022-12-07T01:19:32.723Z,3.22
2022-12-07T01:22:00.412Z,3.00
2022-12-07T01:24:27.719Z,3.08
2022-12-07T01:26:55.507Z,3.20
2022-12-07T01:29:23.055Z,3.15
2022-12-07T01:31:50.886Z,2.38
2022-12-07T01:34:18.239Z,2.42
2022-12-07T01:36:47.411Z,2.67
2022-12-07T01:39:14.712Z,2.35
2022-12-07T01:41:42.887Z,3.55
2022-12-07T01:44:17.845Z,3.40
2022-12-07T01:46:47.032Z,2.90
2022-12-07T01:49:19.909Z,3.13
2022-12-07T01:51:52.873Z,2.38
2022-12-07T01:54:22.107Z,1.88
2022-12-07T01:56:52.867Z,2.38
2022-12-07T01:59:22.857Z,2.83
2022-12-07T02:01:52.594Z,2.63
2022-12-07T02:04:20.497Z,3.33
2022-12-07T02:06:50.452Z,3.80
2022-12-07T02:09:17.797Z,1.20
2022-12-07T02:11:45.619Z,2.50
2022-12-07T02:14:12.944Z,2.20
2022-12-07T02:16:52.281Z,2.67
2022-12-07T02:20:05.592Z,2.28
2022-12-07T02:23:13.309Z,3.42
2022-12-07T02:25:58.400Z,2.33
2022-12-07T02:28:31.413Z,2.47
2022-12-07T02:31:05.471Z,2.22
2022-12-07T02:33:38.058Z,4.75
2022-12-07T02:36:10.685Z,3.10
2022-12-07T02:38:44.922Z,2.22
2022-12-07T02:41:18.932Z,2.47
2022-12-07T02:43:50.612Z,3.17
2022-12-07T02:46:27.971Z,1.98
2022-12-07T02:48:56.692Z,2.90
2022-12-07T02:51:24.429Z,2.40
2022-12-07T02:53:52.526Z,1.95
2022-12-07T02:56:29.074Z,3.28
2022-12-07T02:59:07.502Z,2.47
2022-12-07T03:01:44.707Z,2.40
2022-12-07T03:04:28.638Z,2.53
2022-12-07T03:07:03.639Z,2.92
2022-12-07T03:09:36.992Z,2.42
2022-12-07T03:12:11.209Z,2.20
2022-12-07T03:14:46.088Z,2.70
2022-12-07T03:17:20.665Z,2.00
2022-12-07T03:19:52.644Z,2.63
2022-12-07T03:22:21.486Z,2.80
2022-12-07T03:24:53.593Z,2.92
2022-12-07T03:27:25.109Z,3.42
2022-12-07T03:29:57.245Z,3.17
2022-12-07T03:32:32.193Z,3.08
2022-12-07T03:35:04.612Z,3.00
2022-12-07T03:37:37.526Z,2.95
2022-12-07T03:40:15.640Z,2.67
2022-12-07T03:42:43.889Z,5.18
2022-12-07T03:45:13.684Z,3.03
2022-12-07T03:47:49.085Z,3.47
2022-12-07T03:50:25.815Z,3.45
2022-12-07T03:52:57.870Z,3.35
2022-12-07T03:55:30.552Z,3.78
2022-12-07T03:58:01.323Z,3.80
2022-12-07T04:00:29.619Z,3.45
2022-12-07T04:02:59.172Z,4.05
2022-12-07T04:05:27.645Z,3.80
2022-12-07T04:07:55.161Z,3.47
2022-12-07T04:10:23.275Z,5.78
2022-12-07T04:12:50.847Z,4.03
2022-12-07T04:15:18.870Z,2.88
2022-12-07T04:17:46.255Z,3.40
2022-12-07T04:20:15.959Z,5.10
2022-12-07T04:22:43.535Z,5.03
2022-12-07T04:25:11.181Z,5.53
2022-12-07T04:27:38.671Z,3.92
2022-12-07T04:30:07.947Z,5.13
2022-12-07T04:32:35.322Z,4.63
2022-12-07T04:35:03.879Z,4.72
2022-12-07T04:37:32.682Z,6.03
2022-12-07T04:40:00.786Z,4.10
2022-12-07T04:42:29.223Z,3.70
2022-12-07T04:44:57.524Z,3.92
2022-12-07T04:47:24.897Z,4.70
2022-12-07T04:49:52.577Z,4.93
2022-12-07T04:52:19.915Z,3.80
2022-12-07T04:54:49.324Z,5.15
2022-12-07T04:57:16.766Z,3.97
2022-12-07T04:59:45.927Z,4.00
2022-12-07T05:02:13.829Z,6.80
2022-12-07T05:04:41.836Z,6.32
2022-12-07T05:07:09.162Z,6.13
2022-12-07T05:09:37.043Z,7.03
2022-12-07T05:12:06.197Z,7.20
2022-12-07T05:14:34.114Z,8.70
2022-12-07T05:17:04.467Z,9.43
2022-12-07T05:19:32.519Z,8.25
2022-12-07T05:21:59.900Z,9.60
2022-12-07T05:24:27.993Z,9.95
2022-12-07T05:26:55.559Z,8.90
2022-12-07T05:29:25.023Z,10.60
2022-12-07T05:31:52.424Z,11.25
2022-12-07T05:34:20.680Z,8.77
2022-12-07T05:36:47.945Z,9.57
2022-12-07T05:39:15.778Z,10.45
2022-12-07T05:41:43.330Z,10.60
2022-12-07T05:44:11.335Z,10.15
2022-12-07T05:46:40.294Z,12.20
2022-12-07T05:49:08.136Z,13.23
2022-12-07T05:51:35.646Z,11.60
2022-12-07T05:54:03.629Z,13.25
2022-12-07T05:56:31.065Z,12.18
2022-12-07T05:58:58.834Z,11.48
2022-12-07T06:01:26.391Z,11.85
2022-12-07T06:03:55.953Z,13.18
2022-12-07T06:06:23.374Z,13.43
2022-12-07T06:08:51.504Z,14.65
2022-12-07T06:11:18.863Z,12.00
2022-12-07T06:13:47.543Z,13.45
2022-12-07T06:16:15.120Z,12.40
2022-12-07T06:18:42.923Z,9.50
2022-12-07T06:21:11.758Z,13.50
2022-12-07T06:23:39.571Z,11.88
2022-12-07T06:26:06.979Z,11.20
2022-12-07T06:28:34.932Z,12.85
2022-12-07T06:31:03.312Z,11.52
2022-12-07T06:33:31.318Z,10.45
2022-12-07T06:35:58.767Z,10.68
2022-12-07T06:38:27.912Z,11.85
2022-12-07T06:40:55.562Z,13.10
2022-12-07T06:43:23.228Z,11.43
2022-12-07T06:45:50.593Z,10.65
2022-12-07T06:48:18.427Z,12.00
2022-12-07T06:50:49.885Z,11.35
2022-12-07T06:53:22.004Z,10.60
2022-12-07T06:55:50.880Z,11.55
2022-12-07T06:58:19.042Z,10.60
2022-12-07T07:00:46.826Z,11.52
2022-12-07T07:03:14.917Z,12.00
2022-12-07T07:05:42.785Z,11.85
2022-12-07T07:08:26.343Z,10.02
2022-12-07T07:10:55.492Z,10.35
2022-12-07T07:13:23.334Z,9.02
2022-12-07T07:15:50.758Z,10.27
2022-12-07T07:18:18.856Z,13.02
2022-12-07T07:20:46.227Z,13.85
2022-12-07T07:23:14.534Z,12.45
2022-12-07T07:25:41.990Z,12.02
2022-12-07T07:28:15.079Z,11.25
2022-12-07T07:33:11.155Z,11.82
2022-12-07T07:35:38.847Z,11.32
2022-12-07T07:38:06.999Z,12.43
2022-12-07T07:40:34.439Z,14.23
2022-12-07T07:43:02.437Z,13.50
2022-12-07T07:45:31.362Z,10.50
2022-12-07T07:47:59.133Z,14.70
2022-12-07T07:50:26.501Z,11.90
2022-12-07T07:52:54.345Z,11.50
2022-12-07T07:55:21.751Z,14.05
2022-12-07T07:57:54.521Z,11.38
2022-12-07T08:00:23.181Z,13.85
2022-12-07T08:02:52.259Z,13.38
2022-12-07T08:05:19.707Z,14.43
2022-12-07T08:07:47.649Z,13.93
2022-12-07T08:10:15.227Z,13.10
2022-12-07T08:12:44.327Z,13.85
2022-12-07T08:15:11.751Z,13.18
2022-12-07T08:17:39.869Z,15.10
2022-12-07T08:20:09.430Z,12.15
2022-12-07T08:22:37.161Z,15.82
2022-12-07T08:25:05.088Z,14.43
2022-12-07T08:27:32.977Z,12.35
2022-12-07T08:30:00.854Z,12.35
2022-12-07T08:32:29.170Z,11.27
2022-12-07T08:34:56.723Z,11.82
2022-12-07T08:37:26.386Z,14.15
2022-12-07T08:39:53.674Z,12.75
2022-12-07T08:42:22.071Z,13.20
2022-12-07T08:44:49.605Z,10.15
2022-12-07T08:47:17.348Z,9.55
2022-12-07T08:49:48.737Z,11.88
2022-12-07T08:52:17.208Z,11.25
2022-12-07T08:54:46.591Z,8.88
2022-12-07T08:57:14.464Z,10.02
2022-12-07T08:59:41.948Z,9.05
2022-12-07T09:02:10.145Z,7.50
2022-12-07T09:04:37.732Z,8.43
2022-12-07T09:07:05.838Z,8.93
2022-12-07T09:09:33.941Z,7.30
2022-12-07T09:12:03.659Z,8.07
2022-12-07T09:14:31.087Z,7.97
2022-12-07T09:17:07.277Z,8.70
2022-12-07T09:19:34.638Z,7.05
2022-12-07T09:22:05.545Z,9.05
2022-12-07T09:24:33.221Z,8.95
2022-12-07T09:27:02.595Z,9.27
2022-12-07T09:29:29.968Z,9.55
2022-12-07T09:31:58.172Z,8.30
2022-12-07T09:34:25.734Z,6.25
2022-12-07T09:36:53.986Z,6.70
2022-12-07T09:39:21.436Z,9.80
2022-12-07T09:41:49.484Z,9.18
2022-12-07T09:44:27.671Z,10.25
2022-12-07T09:46:57.278Z,9.90
2022-12-07T09:49:26.477Z,10.00
2022-12-07T09:52:02.809Z,6.13
2022-12-07T09:54:31.241Z,9.45
2022-12-07T09:57:00.095Z,8.25
2022-12-07T09:59:33.750Z,8.13
2022-12-07T10:02:25.343Z,6.90
2022-12-07T10:04:53.483Z,8.77
2022-12-07T10:07:21.546Z,8.40
2022-12-07T10:09:48.942Z,7.00
2022-12-07T10:12:16.760Z,6.80
2022-12-07T10:15:12.908Z,6.45
2022-12-07T10:17:42.489Z,8.45
2022-12-07T10:20:15.840Z,7.57
2022-12-07T10:22:57.016Z,7.60
2022-12-07T10:25:28.843Z,7.53
2022-12-07T10:28:02.180Z,6.65
2022-12-07T10:30:32.952Z,6.53
2022-12-07T10:33:03.722Z,5.65
2022-12-07T10:35:31.563Z,5.65
2022-12-07T10:38:00.835Z,5.25
2022-12-07T10:40:32.658Z,6.95
2022-12-07T10:43:05.844Z,4.55
2022-12-07T10:46:02.621Z,4.47
2022-12-07T10:48:40.269Z,4.95
2022-12-07T10:51:11.987Z,4.88
2022-12-07T10:53:53.884Z,3.80
2022-12-07T10:56:52.821Z,4.82
2022-12-07T10:59:47.388Z,6.03
2022-12-07T11:02:45.548Z,9.98
2022-12-07T11:05:23.525Z,6.93
2022-12-07T11:08:04.325Z,6.25
2022-12-07T11:10:42.590Z,4.47
2022-12-07T11:13:28.701Z,4.25
2022-12-07T11:16:06.534Z,3.90
2022-12-07T11:18:44.516Z,3.40
2022-12-07T11:21:22.272Z,4.50
2022-12-07T11:24:02.127Z,4.55
2022-12-07T11:26:48.098Z,5.28
2022-12-07T11:29:35.213Z,8.93
2022-12-07T11:32:12.341Z,14.60
2022-12-07T11:34:52.629Z,21.52
2022-12-07T11:37:26.826Z,15.57
2022-12-07T11:39:56.637Z,23.15
2022-12-07T11:42:27.573Z,7.50
2022-12-07T11:45:01.386Z,8.70
2022-12-07T11:47:37.951Z,11.63
2022-12-07T11:50:26.100Z,8.93
2022-12-07T11:52:58.961Z,6.80
2022-12-07T11:55:33.712Z,6.20
2022-12-07T11:58:07.325Z,6.03
2022-12-07T12:00:35.830Z,5.82
2022-12-07T12:03:10.497Z,6.35
2022-12-07T12:05:40.425Z,4.57
2022-12-07T12:11:16.736Z,5.38
2022-12-07T12:14:33.814Z,5.00
2022-12-07T12:17:38.838Z,5.22
2022-12-07T12:20:20.015Z,5.63
2022-12-07T12:22:54.504Z,6.57
2022-12-07T12:25:25.844Z,7.55
2022-12-07T12:27:56.541Z,4.32
2022-12-07T12:30:36.639Z,6.63
2022-12-07T12:33:15.552Z,5.97
2022-12-07T12:35:43.620Z,6.43
2022-12-07T12:38:33.075Z,9.15
2022-12-07T12:41:02.467Z,7.63
2022-12-07T12:43:50.677Z,5.95
2022-12-07T12:46:50.033Z,5.38
2022-12-07T12:49:35.566Z,6.93
2022-12-07T12:52:50.841Z,5.43
2022-12-07T12:55:49.061Z,5.97
2022-12-07T12:58:30.870Z,6.47
2022-12-07T13:01:40.895Z,5.68
2022-12-07T13:06:54.783Z,6.28
2022-12-07T13:09:25.646Z,5.53
2022-12-07T13:12:02.665Z,7.57
2022-12-07T13:14:58.437Z,5.43
2022-12-07T13:18:04.281Z,7.85
2022-12-07T13:20:46.223Z,8.48
2022-12-07T13:23:16.230Z,6.43
2022-12-07T13:25:52.160Z,7.47
2022-12-07T13:28:23.429Z,7.35
2022-12-07T13:31:04.419Z,8.07
2022-12-07T13:33:32.201Z,7.57
2022-12-07T13:36:00.195Z,7.10
2022-12-07T13:38:30.818Z,5.40
2022-12-07T13:41:13.133Z,8.30
2022-12-07T13:44:02.511Z,6.82
2022-12-07T13:46:45.887Z,5.88
2022-12-07T13:49:23.172Z,7.65
2022-12-07T13:51:51.727Z,6.22
2022-12-07T13:54:21.030Z,7.55
2022-12-07T13:56:52.197Z,5.65
2022-12-07T13:59:23.640Z,6.03
2022-12-07T14:01:53.182Z,6.82
2022-12-07T14:04:31.936Z,6.35
2022-12-07T14:07:00.492Z,13.90
2022-12-07T14:09:29.529Z,11.00
2022-12-07T14:11:58.792Z,7.15
2022-12-07T14:14:35.945Z,7.18
2022-12-07T14:17:16.222Z,7.18
2022-12-07T14:19:49.209Z,8.30
2022-12-07T14:22:29.797Z,6.40
2022-12-07T14:25:17.208Z,6.70
2022-12-07T14:27:53.468Z,6.57
2022-12-07T14:30:23.265Z,6.82
2022-12-07T14:32:54.338Z,6.95
2022-12-07T14:35:21.814Z,6.22
2022-12-07T14:37:50.541Z,7.13
2022-12-07T14:40:20.879Z,7.72
2022-12-07T14:42:52.488Z,7.43
2022-12-07T14:45:22.920Z,9.77
2022-12-07T14:53:32.109Z,6.97
2022-12-07T14:55:59.394Z,4.25
2022-12-07T14:58:27.084Z,7.43
2022-12-07T15:00:55.964Z,9.05
2022-12-07T15:03:24.335Z,5.95
2022-12-07T15:05:51.755Z,7.45
2022-12-07T15:08:19.650Z,9.18
2022-12-07T15:10:47.225Z,8.50
2022-12-07T15:13:15.278Z,6.85
2022-12-07T15:15:42.781Z,8.70
2022-12-07T15:18:12.439Z,5.60
2022-12-07T15:20:39.841Z,8.60
2022-12-07T15:23:07.684Z,6.32
2022-12-07T15:25:35.084Z,6.55
2022-12-07T15:28:03.820Z,5.90
2022-12-07T15:30:31.113Z,9.00
2022-12-07T15:32:59.521Z,7.35
2022-12-07T15:35:28.292Z,10.60
2022-12-07T15:37:56.103Z,10.40
2022-12-07T15:40:23.495Z,9.18
2022-12-07T15:42:51.673Z,8.55
2022-12-07T15:45:19.578Z,13.82
2022-12-07T15:48:26.126Z,17.02
2022-12-07T15:50:36.292Z,12.88
2022-12-07T15:53:04.281Z,11.63
2022-12-07T15:55:32.203Z,13.68
2022-12-07T15:58:00.851Z,8.45
2022-12-07T16:00:28.170Z,7.82
2022-12-07T16:02:55.972Z,6.40
2022-12-07T16:05:23.574Z,7.38
2022-12-07T16:07:52.767Z,6.88
2022-12-07T16:10:20.242Z,7.15
2022-12-07T16:12:48.223Z,10.05
2022-12-07T16:15:18.951Z,5.82
2022-12-07T16:17:50.651Z,10.00
2022-12-07T16:20:18.213Z,8.38
2022-12-07T16:22:46.029Z,5.75
2022-12-07T16:25:14.921Z,7.13
2022-12-07T16:27:43.181Z,7.07
2022-12-07T16:30:13.782Z,8.02
2022-12-07T16:32:41.994Z,6.78
2022-12-07T16:35:10.116Z,6.35
2022-12-07T16:37:38.416Z,8.65
2022-12-07T16:40:07.332Z,8.18
2022-12-07T16:42:37.299Z,7.15
2022-12-07T16:45:05.919Z,7.50
2022-12-07T16:47:33.964Z,7.43
2022-12-07T16:50:01.415Z,9.23
2022-12-07T16:52:29.237Z,7.38
2022-12-07T16:54:56.705Z,15.02
2022-12-07T16:57:24.545Z,11.35
2022-12-07T16:59:53.621Z,10.38
2022-12-07T17:02:21.562Z,14.65
2022-12-07T17:04:48.963Z,14.23
2022-12-07T17:07:16.823Z,14.43
2022-12-07T17:09:44.352Z,12.63
2022-12-07T17:12:12.516Z,9.93
2022-12-07T17:14:40.132Z,8.68
2022-12-07T17:17:09.509Z,11.98
2022-12-07T17:19:36.934Z,9.10
2022-12-07T17:22:04.701Z,9.98
2022-12-07T17:24:32.095Z,8.85
2022-12-07T17:26:59.864Z,10.48
2022-12-07T17:29:27.212Z,7.53
2022-12-07T17:31:54.920Z,8.60
2022-12-07T17:34:23.767Z,8.38
2022-12-07T17:36:51.751Z,7.10
2022-12-07T17:39:19.870Z,8.55
2022-12-07T17:41:48.038Z,11.38
2022-12-07T17:44:18.190Z,9.55
2022-12-07T17:46:47.465Z,7.82
2022-12-07T17:49:15.206Z,9.52
2022-12-07T17:51:44.784Z,8.55
2022-12-07T17:54:13.427Z,9.18
2022-12-07T17:56:41.380Z,7.55
2022-12-07T17:59:09.267Z,7.97
2022-12-07T18:01:37.976Z,13.73
2022-12-07T18:04:06.414Z,11.63
2022-12-07T18:06:35.278Z,10.55
2022-12-07T18:09:04.750Z,7.90
2022-12-07T18:11:32.643Z,6.15
2022-12-07T18:14:00.184Z,6.95
2022-12-07T18:16:30.511Z,9.77
2022-12-07T18:19:00.384Z,8.30
2022-12-07T18:21:30.365Z,8.15
2022-12-07T18:24:00.540Z,6.20
2022-12-07T18:26:31.640Z,6.60
2022-12-07T18:28:59.571Z,5.05
2022-12-07T18:31:27.726Z,7.90
2022-12-07T18:33:55.028Z,8.82
2022-12-07T18:36:23.760Z,9.95
2022-12-07T18:38:51.194Z,6.97
2022-12-07T18:41:19.657Z,8.70
2022-12-07T18:43:48.862Z,6.68
2022-12-07T18:46:19.695Z,10.40
2022-12-07T18:48:48.025Z,7.55
2022-12-07T18:51:16.502Z,8.02
2022-12-07T18:53:44.503Z,6.45
2022-12-07T18:56:14.245Z,10.43
2022-12-07T18:58:42.150Z,7.10
2022-12-07T19:01:11.468Z,10.15
2022-12-07T19:03:39.060Z,7.95
2022-12-07T19:06:07.951Z,11.85
2022-12-07T19:08:35.338Z,8.52
2022-12-07T19:11:03.144Z,11.27
2022-12-07T19:13:30.566Z,10.23
2022-12-07T19:15:58.604Z,9.65
2022-12-07T19:18:27.780Z,11.90
2022-12-07T19:20:55.601Z,10.10
2022-12-07T19:23:23.041Z,11.02
2022-12-07T19:25:50.964Z,9.52
2022-12-07T19:28:18.404Z,9.75
2022-12-07T19:30:47.668Z,9.70
2022-12-07T19:33:15.052Z,11.85
2022-12-07T19:35:44.295Z,14.93
2022-12-07T19:38:11.647Z,12.27
2022-12-07T19:40:39.493Z,10.18
2022-12-07T19:43:07.259Z,7.82
2022-12-07T19:45:35.380Z,12.25
2022-12-07T19:48:02.781Z,11.85
2022-12-07T19:50:30.700Z,14.80
2022-12-07T19:52:59.582Z,11.65
2022-12-07T19:55:27.552Z,14.18
2022-12-07T19:57:54.905Z,16.20
2022-12-07T20:00:23.257Z,15.55
2022-12-07T20:02:51.746Z,11.18
2022-12-07T20:05:19.640Z,12.98
2022-12-07T20:07:47.421Z,13.60
2022-12-07T20:10:19.404Z,13.23
2022-12-07T20:12:49.130Z,13.10
2022-12-07T20:15:17.247Z,9.88
2022-12-07T20:17:45.042Z,9.55
2022-12-07T20:20:13.355Z,7.53
2022-12-07T20:22:40.730Z,10.27
2022-12-07T20:25:09.721Z,8.38
2022-12-07T20:27:38.624Z,5.57
2022-12-07T20:30:08.271Z,9.32
2022-12-07T20:32:35.760Z,6.95
2022-12-07T20:35:04.023Z,8.43
2022-12-07T20:37:31.658Z,6.70
2022-12-07T20:39:59.347Z,9.05
2022-12-07T20:42:26.836Z,6.18
2022-12-07T20:45:01.165Z,6.65
2022-12-07T20:47:30.318Z,10.32
2022-12-07T20:49:58.236Z,5.97
2022-12-07T20:52:25.606Z,7.78
2022-12-07T20:54:53.843Z,7.00
2022-12-07T20:57:21.293Z,6.38
2022-12-07T20:59:49.445Z,5.55
2022-12-07T21:02:18.496Z,5.93
2022-12-07T21:04:47.066Z,5.82
2022-12-07T21:07:14.923Z,11.80
2022-12-07T21:09:42.835Z,5.78
2022-12-07T21:12:10.354Z,8.35
2022-12-07T21:14:40.291Z,7.03
2022-12-07T21:17:08.051Z,6.90
2022-12-07T21:19:38.358Z,7.10
2022-12-07T21:22:05.993Z,6.18
2022-12-07T21:24:34.473Z,5.97
2022-12-07T21:27:02.014Z,6.93
2022-12-07T21:29:43.364Z,6.75
2022-12-07T21:32:13.405Z,8.70
2022-12-07T21:34:42.859Z,5.93
2022-12-07T21:37:10.361Z,8.32
2022-12-07T21:39:38.334Z,9.88
2022-12-07T21:42:06.021Z,5.32
2022-12-07T21:44:34.677Z,8.35
2022-12-07T21:47:02.244Z,7.57
2022-12-07T21:49:30.205Z,9.10
2022-12-07T21:51:58.992Z,6.95
2022-12-07T21:54:27.016Z,7.38
2022-12-07T21:56:54.441Z,6.32
2022-12-07T21:59:22.671Z,9.77
2022-12-07T22:01:51.426Z,10.70
2022-12-07T22:04:21.452Z,9.57
2022-12-07T22:06:49.513Z,12.70
2022-12-07T22:09:19.643Z,9.13
2022-12-07T22:11:47.312Z,8.85
2022-12-07T22:14:15.307Z,9.38
2022-12-07T22:16:42.746Z,10.13
2022-12-07T22:19:10.519Z,11.68
2022-12-07T22:21:38.019Z,8.27
2022-12-07T22:24:07.104Z,13.10
2022-12-07T22:26:36.041Z,9.90
2022-12-07T22:29:03.887Z,9.02
2022-12-07T22:31:31.342Z,8.05
2022-12-07T22:33:59.358Z,10.57
2022-12-07T22:36:26.820Z,9.43
2022-12-07T22:38:54.578Z,9.80
2022-12-07T22:41:25.301Z,10.43
2022-12-07T22:43:55.289Z,8.63
2022-12-07T22:46:23.176Z,10.40
2022-12-07T22:48:51.797Z,8.32
2022-12-07T22:51:24.240Z,8.70
2022-12-07T22:53:52.968Z,8.30
2022-12-07T22:56:21.861Z,9.10
2022-12-07T22:58:49.967Z,7.75
2022-12-07T23:01:20.731Z,9.05
2022-12-07T23:03:48.705Z,10.32
2022-12-07T23:06:17.745Z,7.50
2022-12-07T23:08:46.082Z,9.13
2022-12-07T23:11:16.196Z,8.48
2022-12-07T23:13:44.350Z,9.15
2022-12-07T23:16:13.951Z,8.18
2022-12-07T23:18:43.414Z,8.50
2022-12-07T23:21:10.649Z,8.73
2022-12-07T23:23:38.508Z,9.88
2022-12-07T23:26:07.547Z,8.60
2022-12-07T23:28:37.024Z,7.95
2022-12-07T23:31:04.977Z,10.02
2022-12-07T23:33:33.045Z,8.18
2022-12-07T23:36:09.651Z,7.80
2022-12-07T23:38:38.842Z,9.55
2022-12-07T23:41:07.798Z,8.05
2022-12-07T23:43:36.470Z,5.65
2022-12-07T23:46:08.280Z,8.05
2022-12-07T23:48:36.954Z,8.38
2022-12-07T23:51:04.819Z,8.55
2022-12-07T23:53:35.179Z,13.50
2022-12-07T23:56:03.211Z,10.45
2022-12-07T23:58:31.278Z,10.05
